sensor_id;sensor_type;location;lat;lon;timestamp;pressure;altitude;pressure_sealevel;temperature;humidity
62895;BME280;49204;44.916;37.998;2023-04-02T00:01:46;100834.05;;;3.14;49.90
62895;BME280;49204;44.916;37.998;2023-04-02T00:04:17;100827.17;;;3.02;50.13
62895;BME280;49204;44.916;37.998;2023-04-02T00:06:54;100818.08;;;3.00;50.25
62895;BME280;49204;44.916;37.998;2023-04-02T00:09:29;100829.38;;;2.99;50.35
62895;BME280;49204;44.916;37.998;2023-04-02T00:12:06;100829.78;;;2.99;50.38
62895;BME280;49204;44.916;37.998;2023-04-02T00:14:31;100831.13;;;2.96;50.51
62895;BME280;49204;44.916;37.998;2023-04-02T00:17:04;100824.18;;;2.95;50.56
62895;BME280;49204;44.916;37.998;2023-04-02T00:20:18;100828.97;;;2.95;50.47
62895;BME280;49204;44.916;37.998;2023-04-02T00:22:11;100822.48;;;2.92;50.34
62895;BME280;49204;44.916;37.998;2023-04-02T00:24:39;100827.69;;;2.90;50.36
62895;BME280;49204;44.916;37.998;2023-04-02T00:27:12;100825.98;;;2.88;50.47
62895;BME280;49204;44.916;37.998;2023-04-02T00:29:49;100829.44;;;2.84;50.49
62895;BME280;49204;44.916;37.998;2023-04-02T00:32:21;100832.08;;;2.82;50.47
62895;BME280;49204;44.916;37.998;2023-04-02T00:34:50;100830.78;;;2.79;50.48
62895;BME280;49204;44.916;37.998;2023-04-02T00:37:21;100826.48;;;2.77;50.49
62895;BME280;49204;44.916;37.998;2023-04-02T00:40:00;100832.53;;;2.76;50.57
62895;BME280;49204;44.916;37.998;2023-04-02T00:42:30;100830.38;;;2.74;50.59
62895;BME280;49204;44.916;37.998;2023-04-02T00:45:00;100823.03;;;2.72;50.66
62895;BME280;49204;44.916;37.998;2023-04-02T00:47:35;100826.94;;;2.72;50.76
62895;BME280;49204;44.916;37.998;2023-04-02T00:52:43;100823.48;;;2.69;50.78
62895;BME280;49204;44.916;37.998;2023-04-02T00:55:26;100823.04;;;2.68;50.79
62895;BME280;49204;44.916;37.998;2023-04-02T00:57:51;100823.93;;;2.67;50.78
62895;BME280;49204;44.916;37.998;2023-04-02T01:00:29;100817.43;;;2.66;50.81
62895;BME280;49204;44.916;37.998;2023-04-02T01:05:51;100826.98;;;2.64;50.93
62895;BME280;49204;44.916;37.998;2023-04-02T01:16:19;100815.73;;;2.54;51.65
62895;BME280;49204;44.916;37.998;2023-04-02T01:24:05;100804.04;;;2.54;51.40
62895;BME280;49204;44.916;37.998;2023-04-02T01:29:41;100803.59;;;2.56;51.36
62895;BME280;49204;44.916;37.998;2023-04-02T01:32:10;100795.80;;;2.56;51.27
62895;BME280;49204;44.916;37.998;2023-04-02T01:34:41;100793.19;;;2.58;51.24
62895;BME280;49204;44.916;37.998;2023-04-02T01:37:33;100786.69;;;2.59;51.26
62895;BME280;49204;44.916;37.998;2023-04-02T01:42:48;100771.95;;;2.58;51.45
62895;BME280;49204;44.916;37.998;2023-04-02T01:45:17;100778.89;;;2.58;51.44
62895;BME280;49204;44.916;37.998;2023-04-02T01:47:46;100775.84;;;2.58;51.43
62895;BME280;49204;44.916;37.998;2023-04-02T01:50:38;100774.14;;;2.57;51.69
62895;BME280;49204;44.916;37.998;2023-04-02T01:53:06;100773.70;;;2.56;51.82
62895;BME280;49204;44.916;37.998;2023-04-02T01:55:45;100777.59;;;2.56;51.65
62895;BME280;49204;44.916;37.998;2023-04-02T01:58:17;100768.94;;;2.56;51.58
62895;BME280;49204;44.916;37.998;2023-04-02T02:03:22;100773.30;;;2.50;51.75
62895;BME280;49204;44.916;37.998;2023-04-02T02:05:52;100774.59;;;2.50;51.76
62895;BME280;49204;44.916;37.998;2023-04-02T02:08:36;100773.75;;;2.48;51.84
62895;BME280;49204;44.916;37.998;2023-04-02T02:11:04;100765.95;;;2.47;52.05
62895;BME280;49204;44.916;37.998;2023-04-02T02:13:33;100769.41;;;2.49;52.06
62895;BME280;49204;44.916;37.998;2023-04-02T02:16:03;100765.09;;;2.48;51.96
62895;BME280;49204;44.916;37.998;2023-04-02T02:18:34;100767.28;;;2.45;51.95
62895;BME280;49204;44.916;37.998;2023-04-02T02:21:04;100763.39;;;2.45;52.02
62895;BME280;49204;44.916;37.998;2023-04-02T02:23:34;100763.80;;;2.45;52.07
62895;BME280;49204;44.916;37.998;2023-04-02T02:26:05;100769.00;;;2.46;52.04
62895;BME280;49204;44.916;37.998;2023-04-02T02:28:36;100759.00;;;2.49;52.06
62895;BME280;49204;44.916;37.998;2023-04-02T02:31:12;100758.59;;;2.51;52.03
62895;BME280;49204;44.916;37.998;2023-04-02T02:33:51;100749.91;;;2.52;52.02
62895;BME280;49204;44.916;37.998;2023-04-02T02:39:03;100743.41;;;2.52;52.19
62895;BME280;49204;44.916;37.998;2023-04-02T02:41:40;100732.11;;;2.56;52.18
62895;BME280;49204;44.916;37.998;2023-04-02T02:46:49;100738.64;;;2.55;52.35
62895;BME280;49204;44.916;37.998;2023-04-02T02:49:18;100745.11;;;2.56;52.50
62895;BME280;49204;44.916;37.998;2023-04-02T02:51:51;100745.95;;;2.61;52.46
62895;BME280;49204;44.916;37.998;2023-04-02T02:54:20;100742.89;;;2.66;52.42
62895;BME280;49204;44.916;37.998;2023-04-02T02:56:58;100750.68;;;2.69;52.35
62895;BME280;49204;44.916;37.998;2023-04-02T02:59:29;100755.87;;;2.69;52.92
62895;BME280;49204;44.916;37.998;2023-04-02T03:02:00;100755.87;;;2.69;52.86
62895;BME280;49204;44.916;37.998;2023-04-02T03:04:30;100750.68;;;2.69;52.76
62895;BME280;49204;44.916;37.998;2023-04-02T03:07:01;100749.37;;;2.69;52.75
62895;BME280;49204;44.916;37.998;2023-04-02T03:09:44;100744.63;;;2.67;52.81
62895;BME280;49204;44.916;37.998;2023-04-02T03:13:04;100744.59;;;2.70;52.81
62895;BME280;49204;44.916;37.998;2023-04-02T03:17:29;100741.93;;;2.78;52.73
62895;BME280;49204;44.916;37.998;2023-04-02T03:20:00;100753.17;;;2.83;52.65
62895;BME280;49204;44.916;37.998;2023-04-02T03:22:33;100754.02;;;2.87;52.63
62895;BME280;49204;44.916;37.998;2023-04-02T03:28:02;100756.53;;;2.99;52.72
62895;BME280;49204;44.916;37.998;2023-04-02T03:33:23;100758.13;;;3.17;52.78
62895;BME280;49204;44.916;37.998;2023-04-02T03:36:00;100759.74;;;3.32;52.61
62895;BME280;49204;44.916;37.998;2023-04-02T03:38:31;100758.66;;;3.55;52.48
62895;BME280;49204;44.916;37.998;2023-04-02T03:43:43;100764.02;;;4.18;52.31
62895;BME280;49204;44.916;37.998;2023-04-02T03:49:03;100761.81;;;4.84;52.21
62895;BME280;49204;44.916;37.998;2023-04-02T03:51:39;100758.86;;;5.08;51.97
62895;BME280;49204;44.916;37.998;2023-04-02T03:54:04;100754.84;;;5.14;51.89
62895;BME280;49204;44.916;37.998;2023-04-02T03:56:34;100757.97;;;5.34;51.94
62895;BME280;49204;44.916;37.998;2023-04-02T04:02:24;100742.47;;;5.73;51.65
62895;BME280;49204;44.916;37.998;2023-04-02T04:04:50;100750.98;;;6.09;51.77
62895;BME280;49204;44.916;37.998;2023-04-02T04:07:21;100749.30;;;6.27;51.72
62895;BME280;49204;44.916;37.998;2023-04-02T04:09:51;100751.80;;;6.32;51.49
62895;BME280;49204;44.916;37.998;2023-04-02T04:12:41;100752.14;;;6.36;51.31
62895;BME280;49204;44.916;37.998;2023-04-02T04:15:34;100751.11;;;6.24;51.44
62895;BME280;49204;44.916;37.998;2023-04-02T04:20:48;100749.94;;;6.16;51.40
62895;BME280;49204;44.916;37.998;2023-04-02T04:23:34;100754.84;;;6.10;51.20
62895;BME280;49204;44.916;37.998;2023-04-02T04:29:13;100756.44;;;5.95;50.98
62895;BME280;49204;44.916;37.998;2023-04-02T04:31:46;100756.97;;;5.90;50.93
62895;BME280;49204;44.916;37.998;2023-04-02T04:34:25;100763.44;;;5.96;50.99
62895;BME280;49204;44.916;37.998;2023-04-02T04:37:01;100758.37;;;6.09;51.03
62895;BME280;49204;44.916;37.998;2023-04-02T04:39:57;100756.23;;;6.28;51.00
62895;BME280;49204;44.916;37.998;2023-04-02T04:42:29;100761.52;;;6.46;50.92
62895;BME280;49204;44.916;37.998;2023-04-02T04:45:15;100760.55;;;6.71;50.86
62895;BME280;49204;44.916;37.998;2023-04-02T04:47:54;100764.34;;;6.95;50.80
62895;BME280;49204;44.916;37.998;2023-04-02T04:50:27;100758.27;;;7.29;50.87
62895;BME280;49204;44.916;37.998;2023-04-02T04:52:55;100756.00;;;7.66;50.85
62895;BME280;49204;44.916;37.998;2023-04-02T04:55:36;100750.88;;;8.24;50.95
62895;BME280;49204;44.916;37.998;2023-04-02T05:00:59;100748.69;;;10.00;50.67
62895;BME280;49204;44.916;37.998;2023-04-02T05:03:34;100739.89;;;10.60;49.75
62895;BME280;49204;44.916;37.998;2023-04-02T05:06:40;100738.33;;;10.99;49.24
62895;BME280;49204;44.916;37.998;2023-04-02T05:08:43;100748.17;;;11.38;48.74
62895;BME280;49204;44.916;37.998;2023-04-02T05:12:03;100740.37;;;11.86;48.26
62895;BME280;49204;44.916;37.998;2023-04-02T05:13:50;100747.07;;;12.52;47.49
62895;BME280;49204;44.916;37.998;2023-04-02T05:16:37;100743.66;;;13.14;46.94
62895;BME280;49204;44.916;37.998;2023-04-02T05:19:08;100743.77;;;13.47;45.98
62895;BME280;49204;44.916;37.998;2023-04-02T05:21:48;100740.11;;;13.59;45.50
62895;BME280;49204;44.916;37.998;2023-04-02T05:24:46;100746.16;;;13.78;44.44
62895;BME280;49204;44.916;37.998;2023-04-02T05:32:43;100732.05;;;14.99;42.45
62895;BME280;49204;44.916;37.998;2023-04-02T05:35:20;100729.88;;;15.22;41.69
62895;BME280;49204;44.916;37.998;2023-04-02T05:37:50;100735.33;;;15.49;41.22
62895;BME280;49204;44.916;37.998;2023-04-02T05:40:37;100741.39;;;15.81;40.50
62895;BME280;49204;44.916;37.998;2023-04-02T05:43:07;100737.03;;;16.16;39.88
62895;BME280;49204;44.916;37.998;2023-04-02T05:45:40;100732.06;;;16.46;39.21
62895;BME280;49204;44.916;37.998;2023-04-02T05:48:18;100731.80;;;16.71;38.43
62895;BME280;49204;44.916;37.998;2023-04-02T05:50:53;100739.19;;;16.87;37.85
62895;BME280;49204;44.916;37.998;2023-04-02T05:53:35;100730.99;;;16.97;37.28
62895;BME280;49204;44.916;37.998;2023-04-02T05:56:14;100731.84;;;17.18;36.91
62895;BME280;49204;44.916;37.998;2023-04-02T05:58:50;100735.50;;;17.43;36.71
62895;BME280;49204;44.916;37.998;2023-04-02T06:01:19;100737.69;;;17.63;36.10
62895;BME280;49204;44.916;37.998;2023-04-02T06:06:46;100730.52;;;18.09;35.71
62895;BME280;49204;44.916;37.998;2023-04-02T06:09:36;100727.10;;;18.26;34.98
62895;BME280;49204;44.916;37.998;2023-04-02T06:12:29;100728.22;;;18.29;34.95
62895;BME280;49204;44.916;37.998;2023-04-02T06:15:00;100727.41;;;18.16;33.78
62895;BME280;49204;44.916;37.998;2023-04-02T06:17:33;100733.39;;;18.06;33.15
62895;BME280;49204;44.916;37.998;2023-04-02T06:20:04;100727.91;;;18.33;33.32
62895;BME280;49204;44.916;37.998;2023-04-02T06:22:35;100728.58;;;18.61;32.31
62895;BME280;49204;44.916;37.998;2023-04-02T06:25:14;100733.59;;;18.71;31.77
62895;BME280;49204;44.916;37.998;2023-04-02T06:27:38;100733.87;;;18.93;32.01
62895;BME280;49204;44.916;37.998;2023-04-02T06:30:17;100726.94;;;19.25;31.70
62895;BME280;49204;44.916;37.998;2023-04-02T06:32:41;100728.20;;;19.44;31.32
62895;BME280;49204;44.916;37.998;2023-04-02T06:35:15;100726.88;;;19.44;30.18
62895;BME280;49204;44.916;37.998;2023-04-02T06:37:47;100733.44;;;19.45;30.15
62895;BME280;49204;44.916;37.998;2023-04-02T06:40:39;100731.73;;;19.39;29.35
62895;BME280;49204;44.916;37.998;2023-04-02T06:43:22;100721.77;;;19.29;29.06
62895;BME280;49204;44.916;37.998;2023-04-02T06:45:58;100721.42;;;19.45;28.56
62895;BME280;49204;44.916;37.998;2023-04-02T06:48:30;100716.00;;;19.70;28.13
62895;BME280;49204;44.916;37.998;2023-04-02T06:51:09;100722.77;;;19.51;27.78
62895;BME280;49204;44.916;37.998;2023-04-02T06:53:42;100717.05;;;19.39;27.28
62895;BME280;49204;44.916;37.998;2023-04-02T06:59:03;100716.48;;;18.81;28.34
62895;BME280;49204;44.916;37.998;2023-04-02T07:01:44;100718.30;;;18.31;28.68
62895;BME280;49204;44.916;37.998;2023-04-02T07:04:09;100717.97;;;17.79;28.74
62895;BME280;49204;44.916;37.998;2023-04-02T07:06:40;100722.64;;;17.49;29.29
62895;BME280;49204;44.916;37.998;2023-04-02T07:09:09;100717.96;;;17.20;29.27
62895;BME280;49204;44.916;37.998;2023-04-02T07:11:40;100723.50;;;16.97;29.64
62895;BME280;49204;44.916;37.998;2023-04-02T07:14:11;100723.73;;;16.72;29.82
62895;BME280;49204;44.916;37.998;2023-04-02T07:16:40;100722.93;;;16.50;30.02
62895;BME280;49204;44.916;37.998;2023-04-02T07:19:18;100726.17;;;16.41;30.30
62895;BME280;49204;44.916;37.998;2023-04-02T07:21:49;100724.17;;;16.45;30.57
62895;BME280;49204;44.916;37.998;2023-04-02T07:24:20;100731.87;;;16.49;30.61
62895;BME280;49204;44.916;37.998;2023-04-02T07:26:48;100718.03;;;16.37;30.25
62895;BME280;49204;44.916;37.998;2023-04-02T07:29:17;100719.94;;;16.28;30.46
62895;BME280;49204;44.916;37.998;2023-04-02T07:31:46;100717.02;;;16.18;30.71
62895;BME280;49204;44.916;37.998;2023-04-02T07:34:14;100721.67;;;16.07;30.78
62895;BME280;49204;44.916;37.998;2023-04-02T07:36:43;100712.28;;;15.94;30.92
62895;BME280;49204;44.916;37.998;2023-04-02T07:39:13;100715.11;;;15.84;30.86
62895;BME280;49204;44.916;37.998;2023-04-02T07:41:53;100713.04;;;15.89;31.10
62895;BME280;49204;44.916;37.998;2023-04-02T07:44:21;100711.23;;;15.97;31.24
62895;BME280;49204;44.916;37.998;2023-04-02T07:46:50;100708.21;;;16.10;31.25
62895;BME280;49204;44.916;37.998;2023-04-02T07:49:19;100693.30;;;16.22;31.12
62895;BME280;49204;44.916;37.998;2023-04-02T07:51:50;100705.86;;;16.54;31.05
62895;BME280;49204;44.916;37.998;2023-04-02T07:54:19;100705.34;;;16.96;30.78
62895;BME280;49204;44.916;37.998;2023-04-02T07:56:48;100703.09;;;17.30;30.24
62895;BME280;49204;44.916;37.998;2023-04-02T07:59:17;100706.47;;;17.52;30.13
62895;BME280;49204;44.916;37.998;2023-04-02T08:01:45;100706.27;;;17.94;29.83
62895;BME280;49204;44.916;37.998;2023-04-02T08:04:19;100701.95;;;18.30;29.35
62895;BME280;49204;44.916;37.998;2023-04-02T08:06:49;100698.50;;;19.02;28.53
62895;BME280;49204;44.916;37.998;2023-04-02T08:09:19;100695.77;;;19.84;28.30
62895;BME280;49204;44.916;37.998;2023-04-02T08:11:47;100694.77;;;20.91;26.75
62895;BME280;49204;44.916;37.998;2023-04-02T08:14:16;100692.66;;;21.27;26.81
62895;BME280;49204;44.916;37.998;2023-04-02T08:16:50;100694.03;;;21.15;26.65
62895;BME280;49204;44.916;37.998;2023-04-02T08:19:20;100687.16;;;21.55;26.45
62895;BME280;49204;44.916;37.998;2023-04-02T08:21:50;100687.70;;;21.37;26.11
62895;BME280;49204;44.916;37.998;2023-04-02T08:24:19;100681.70;;;21.03;26.52
62895;BME280;49204;44.916;37.998;2023-04-02T08:26:48;100685.63;;;20.50;26.56
62895;BME280;49204;44.916;37.998;2023-04-02T08:29:17;100690.42;;;19.95;26.82
62895;BME280;49204;44.916;37.998;2023-04-02T08:31:46;100692.30;;;19.37;26.79
62895;BME280;49204;44.916;37.998;2023-04-02T08:34:15;100699.23;;;19.04;27.03
62895;BME280;49204;44.916;37.998;2023-04-02T08:36:44;100691.21;;;18.80;27.34
62895;BME280;49204;44.916;37.998;2023-04-02T08:39:12;100701.69;;;18.70;27.83
62895;BME280;49204;44.916;37.998;2023-04-02T08:42:01;100699.99;;;18.45;27.92
62895;BME280;49204;44.916;37.998;2023-04-02T08:44:41;100701.98;;;18.17;28.14
62895;BME280;49204;44.916;37.998;2023-04-02T08:47:07;100696.41;;;17.89;28.42
62895;BME280;49204;44.916;37.998;2023-04-02T08:49:54;100684.64;;;17.60;28.70
62895;BME280;49204;44.916;37.998;2023-04-02T08:52:24;100685.95;;;17.34;28.75
62895;BME280;49204;44.916;37.998;2023-04-02T08:54:53;100684.84;;;17.11;29.03
62895;BME280;49204;44.916;37.998;2023-04-02T08:57:49;100688.05;;;16.96;29.33
62895;BME280;49204;44.916;37.998;2023-04-02T09:00:30;100688.20;;;16.81;29.29
62895;BME280;49204;44.916;37.998;2023-04-02T09:03:08;100688.61;;;16.67;29.46
62895;BME280;49204;44.916;37.998;2023-04-02T09:05:39;100690.66;;;16.56;29.53
62895;BME280;49204;44.916;37.998;2023-04-02T09:08:18;100697.33;;;16.49;29.72
62895;BME280;49204;44.916;37.998;2023-04-02T09:10:59;100694.28;;;16.41;29.87
62895;BME280;49204;44.916;37.998;2023-04-02T09:13:29;100694.87;;;16.32;29.99
62895;BME280;49204;44.916;37.998;2023-04-02T09:16:09;100694.44;;;16.25;30.12
62895;BME280;49204;44.916;37.998;2023-04-02T09:18:33;100691.12;;;16.21;30.23
62895;BME280;49204;44.916;37.998;2023-04-02T09:21:14;100693.38;;;16.20;30.46
62895;BME280;49204;44.916;37.998;2023-04-02T09:23:36;100694.80;;;16.19;30.50
62895;BME280;49204;44.916;37.998;2023-04-02T09:26:16;100701.35;;;16.20;30.73
62895;BME280;49204;44.916;37.998;2023-04-02T09:28:39;100705.82;;;16.20;30.78
62895;BME280;49204;44.916;37.998;2023-04-02T09:31:13;100701.27;;;16.15;30.79
62895;BME280;49204;44.916;37.998;2023-04-02T09:33:48;100696.92;;;16.14;30.92
62895;BME280;49204;44.916;37.998;2023-04-02T09:36:36;100700.61;;;16.11;30.72
62895;BME280;49204;44.916;37.998;2023-04-02T09:39:24;100694.14;;;16.08;30.62
62895;BME280;49204;44.916;37.998;2023-04-02T09:41:53;100696.92;;;16.14;30.69
62895;BME280;49204;44.916;37.998;2023-04-02T09:44:24;100694.31;;;16.27;30.44
62895;BME280;49204;44.916;37.998;2023-04-02T09:46:55;100695.03;;;16.43;29.84
62895;BME280;49204;44.916;37.998;2023-04-02T09:49:34;100695.47;;;16.64;29.09
62895;BME280;49204;44.916;37.998;2023-04-02T09:52:25;100688.01;;;16.84;26.19
62895;BME280;49204;44.916;37.998;2023-04-02T09:57:46;100694.67;;;17.04;26.63
62895;BME280;49204;44.916;37.998;2023-04-02T10:00:20;100699.92;;;17.18;26.79
62895;BME280;49204;44.916;37.998;2023-04-02T10:03:20;100691.52;;;17.24;26.23
62895;BME280;49204;44.916;37.998;2023-04-02T10:05:48;100687.28;;;17.34;25.77
62895;BME280;49204;44.916;37.998;2023-04-02T10:08:25;100683.34;;;17.40;24.74
62895;BME280;49204;44.916;37.998;2023-04-02T10:10:59;100676.27;;;17.59;25.22
62895;BME280;49204;44.916;37.998;2023-04-02T10:16:18;100690.95;;;17.78;23.68
62895;BME280;49204;44.916;37.998;2023-04-02T10:19:04;100695.19;;;17.74;23.81
62895;BME280;49204;44.916;37.998;2023-04-02T10:21:35;100688.09;;;17.81;23.59
62895;BME280;49204;44.916;37.998;2023-04-02T10:24:15;100677.20;;;17.91;24.07
62895;BME280;49204;44.916;37.998;2023-04-02T10:26:55;100673.19;;;18.04;23.70
62895;BME280;49204;44.916;37.998;2023-04-02T10:29:47;100669.58;;;18.10;23.15
62895;BME280;49204;44.916;37.998;2023-04-02T10:32:23;100667.80;;;18.35;23.43
62895;BME280;49204;44.916;37.998;2023-04-02T10:37:51;100662.17;;;18.45;21.63
62895;BME280;49204;44.916;37.998;2023-04-02T10:49:03;100672.62;;;19.43;20.27
62895;BME280;49204;44.916;37.998;2023-04-02T10:59:53;100657.72;;;18.51;21.60
62895;BME280;49204;44.916;37.998;2023-04-02T11:02:34;100659.94;;;18.33;21.96
62895;BME280;49204;44.916;37.998;2023-04-02T11:05:02;100663.66;;;18.12;21.80
62895;BME280;49204;44.916;37.998;2023-04-02T11:07:33;100667.29;;;17.93;21.94
62895;BME280;49204;44.916;37.998;2023-04-02T11:10:02;100665.45;;;17.81;22.27
62895;BME280;49204;44.916;37.998;2023-04-02T11:12:40;100658.85;;;17.73;22.62
62895;BME280;49204;44.916;37.998;2023-04-02T11:15:15;100658.11;;;17.71;22.90
62895;BME280;49204;44.916;37.998;2023-04-02T11:17:44;100655.89;;;17.65;22.85
62895;BME280;49204;44.916;37.998;2023-04-02T11:23:18;100654.23;;;17.57;23.45
62895;BME280;49204;44.916;37.998;2023-04-02T11:25:48;100653.92;;;17.49;23.67
62895;BME280;49204;44.916;37.998;2023-04-02T11:28:31;100653.18;;;17.47;23.79
62895;BME280;49204;44.916;37.998;2023-04-02T11:31:00;100659.60;;;17.50;23.72
62895;BME280;49204;44.916;37.998;2023-04-02T11:38:53;100664.61;;;17.42;23.24
62895;BME280;49204;44.916;37.998;2023-04-02T11:41:59;100665.66;;;17.52;23.44
62895;BME280;49204;44.916;37.998;2023-04-02T11:44:29;100658.70;;;17.69;23.79
62895;BME280;49204;44.916;37.998;2023-04-02T11:47:23;100657.52;;;17.99;24.21
62895;BME280;49204;44.916;37.998;2023-04-02T11:49:58;100654.83;;;18.12;23.91
62895;BME280;49204;44.916;37.998;2023-04-02T11:52:48;100657.80;;;18.26;24.11
62895;BME280;49204;44.916;37.998;2023-04-02T11:55:14;100660.53;;;18.31;23.99
62895;BME280;49204;44.916;37.998;2023-04-02T11:57:59;100654.92;;;18.29;23.45
62895;BME280;49204;44.916;37.998;2023-04-02T12:09:23;100652.22;;;18.42;22.70
62895;BME280;49204;44.916;37.998;2023-04-02T12:12:01;100645.33;;;18.69;23.00
62895;BME280;49204;44.916;37.998;2023-04-02T12:17:03;100650.47;;;19.02;23.16
62895;BME280;49204;44.916;37.998;2023-04-02T12:19:32;100652.67;;;19.14;23.03
62895;BME280;49204;44.916;37.998;2023-04-02T12:22:02;100646.48;;;19.13;22.76
62895;BME280;49204;44.916;37.998;2023-04-02T12:24:31;100647.43;;;19.06;22.96
62895;BME280;49204;44.916;37.998;2023-04-02T12:27:08;100640.11;;;18.92;22.79
62895;BME280;49204;44.916;37.998;2023-04-02T12:29:38;100634.09;;;18.77;21.89
62895;BME280;49204;44.916;37.998;2023-04-02T12:32:19;100637.03;;;18.61;21.86
62895;BME280;49204;44.916;37.998;2023-04-02T12:34:43;100633.50;;;18.55;22.07
62895;BME280;49204;44.916;37.998;2023-04-02T12:37:18;100620.91;;;18.57;22.34
62895;BME280;49204;44.916;37.998;2023-04-02T12:39:49;100617.55;;;18.66;21.66
62895;BME280;49204;44.916;37.998;2023-04-02T12:42:33;100614.57;;;18.76;21.59
62895;BME280;49204;44.916;37.998;2023-04-02T12:45:04;100609.54;;;18.90;22.14
62895;BME280;49204;44.916;37.998;2023-04-02T12:47:36;100612.21;;;18.90;22.81
62895;BME280;49204;44.916;37.998;2023-04-02T12:50:11;100615.03;;;18.94;23.20
62895;BME280;49204;44.916;37.998;2023-04-02T12:52:42;100607.65;;;18.79;23.48
62895;BME280;49204;44.916;37.998;2023-04-02T12:55:16;100608.59;;;18.67;23.85
62895;BME280;49204;44.916;37.998;2023-04-02T12:57:42;100613.97;;;18.48;23.93
62895;BME280;49204;44.916;37.998;2023-04-02T13:03:18;100619.33;;;18.30;24.16
62895;BME280;49204;44.916;37.998;2023-04-02T13:05:39;100629.58;;;18.23;24.51
62895;BME280;49204;44.916;37.998;2023-04-02T13:08:17;100624.78;;;18.10;25.08
62895;BME280;49204;44.916;37.998;2023-04-02T13:10:58;100622.67;;;18.02;25.25
62895;BME280;49204;44.916;37.998;2023-04-02T13:13:34;100620.56;;;17.94;25.43
62895;BME280;49204;44.916;37.998;2023-04-02T13:18:46;100626.06;;;17.86;25.74
62895;BME280;49204;44.916;37.998;2023-04-02T13:21:25;100631.22;;;17.82;26.40
62895;BME280;49204;44.916;37.998;2023-04-02T13:23:54;100633.94;;;17.74;27.61
62895;BME280;49204;44.916;37.998;2023-04-02T13:26:27;100631.05;;;17.65;28.18
62895;BME280;49204;44.916;37.998;2023-04-02T13:28:59;100631.49;;;17.59;28.30
62895;BME280;49204;44.916;37.998;2023-04-02T13:31:32;100635.23;;;17.56;28.18
62895;BME280;49204;44.916;37.998;2023-04-02T13:34:01;100637.45;;;17.62;28.01
62895;BME280;49204;44.916;37.998;2023-04-02T13:36:30;100640.41;;;17.70;27.95
62895;BME280;49204;44.916;37.998;2023-04-02T13:38:58;100642.39;;;17.74;27.29
62895;BME280;49204;44.916;37.998;2023-04-02T13:41:29;100640.20;;;17.73;26.85
62895;BME280;49204;44.916;37.998;2023-04-02T13:44:00;100637.44;;;17.75;26.72
62895;BME280;49204;44.916;37.998;2023-04-02T13:46:31;100647.45;;;17.71;26.77
62895;BME280;49204;44.916;37.998;2023-04-02T13:49:00;100644.65;;;17.67;26.63
62895;BME280;49204;44.916;37.998;2023-04-02T13:51:40;100650.23;;;17.57;26.45
62895;BME280;49204;44.916;37.998;2023-04-02T13:56:48;100646.53;;;17.47;26.38
62895;BME280;49204;44.916;37.998;2023-04-02T13:59:17;100650.23;;;17.44;26.58
62895;BME280;49204;44.916;37.998;2023-04-02T14:01:46;100655.25;;;17.36;26.55
62895;BME280;49204;44.916;37.998;2023-04-02T14:04:19;100660.23;;;17.28;26.68
62895;BME280;49204;44.916;37.998;2023-04-02T14:07:10;100666.17;;;17.18;26.85
62895;BME280;49204;44.916;37.998;2023-04-02T14:09:52;100657.03;;;17.10;26.82
62895;BME280;49204;44.916;37.998;2023-04-02T14:12:51;100654.57;;;17.07;27.02
62895;BME280;49204;44.916;37.998;2023-04-02T14:23:26;100665.72;;;16.72;27.26
62895;BME280;49204;44.916;37.998;2023-04-02T14:26:20;100660.82;;;16.66;27.50
62895;BME280;49204;44.916;37.998;2023-04-02T14:31:36;100670.73;;;16.56;27.98
62895;BME280;49204;44.916;37.998;2023-04-02T14:45:17;100669.22;;;16.11;28.12
62895;BME280;49204;44.916;37.998;2023-04-02T14:47:44;100671.70;;;15.99;27.25
62895;BME280;49204;44.916;37.998;2023-04-02T14:50:11;100683.56;;;15.87;26.96
62895;BME280;49204;44.916;37.998;2023-04-02T14:52:43;100685.37;;;15.79;26.75
62895;BME280;49204;44.916;37.998;2023-04-02T14:55:22;100687.98;;;15.72;26.75
62895;BME280;49204;44.916;37.998;2023-04-02T14:57:48;100689.00;;;15.62;26.47
62895;BME280;49204;44.916;37.998;2023-04-02T15:00:36;100680.85;;;15.58;26.31
62895;BME280;49204;44.916;37.998;2023-04-02T15:03:12;100682.93;;;15.60;26.58
62895;BME280;49204;44.916;37.998;2023-04-02T15:05:45;100680.86;;;15.65;26.68
62895;BME280;49204;44.916;37.998;2023-04-02T15:08:38;100679.17;;;15.64;26.66
62895;BME280;49204;44.916;37.998;2023-04-02T15:11:11;100681.61;;;15.60;25.95
62895;BME280;49204;44.916;37.998;2023-04-02T15:13:59;100683.31;;;15.54;25.83
62895;BME280;49204;44.916;37.998;2023-04-02T15:16:27;100683.69;;;15.40;25.44
62895;BME280;49204;44.916;37.998;2023-04-02T15:19:02;100684.59;;;15.32;25.74
62895;BME280;49204;44.916;37.998;2023-04-02T15:30:13;100689.22;;;14.91;25.08
62895;BME280;49204;44.916;37.998;2023-04-02T15:32:43;100692.20;;;14.78;25.37
62895;BME280;49204;44.916;37.998;2023-04-02T15:35:41;100686.11;;;14.69;25.86
62895;BME280;49204;44.916;37.998;2023-04-02T15:38:10;100694.58;;;14.59;26.21
62895;BME280;49204;44.916;37.998;2023-04-02T15:40:57;100707.44;;;14.49;26.68
62895;BME280;49204;44.916;37.998;2023-04-02T15:43:44;100704.66;;;14.44;27.01
62895;BME280;49204;44.916;37.998;2023-04-02T15:46:27;100699.66;;;14.31;27.38
62895;BME280;49204;44.916;37.998;2023-04-02T15:49:08;100699.01;;;14.18;27.67
62895;BME280;49204;44.916;37.998;2023-04-02T15:57:20;100705.03;;;13.88;28.28
62895;BME280;49204;44.916;37.998;2023-04-02T16:05:35;100702.52;;;13.61;28.96